Time;durP1;ratioP1;P1;durP2;ratioP2;P2;SDS_P1;SDS_P2;PMS_P1;PMS_P2;Temp;Humidity;BMP_temperature;BMP_pressure;BME280_temperature;BME280_humidity;BME280_pressure;Samples;Min_cycle;Max_cycle;Signal;HPM_P1;HPM_P2
2023/12/31 12:27:45;;;;;;;0.20;0.20;;;;;;;;;;6318533;27;20403;-79
2023/12/31 12:30:45;;;;;;;0.20;0.20;;;;;;;;;;6305866;28;20127;-79
2023/12/31 12:33:52;;;;;;;0.20;0.20;;;;;;;;;;6314290;28;20020;-80
2023/12/31 12:36:53;;;;;;;0.17;0.17;;;;;;;;;;6319581;28;20455;-80
2023/12/31 12:39:54;;;;;;;0.10;0.10;;;;;;;;;;6290592;28;20016;-80
2023/12/31 12:42:54;;;;;;;0.10;0.10;;;;;;;;;;6303008;28;20017;-84
2023/12/31 12:46:01;;;;;;;0.10;0.10;;;;;;;;;;6312126;28;20063;-82
2023/12/31 12:49:03;;;;;;;0.17;0.17;;;;;;;;;;6305597;28;20556;-81
2023/12/31 12:52:05;;;;;;;0.10;0.10;;;;;;;;;;6313406;28;20020;-82
2023/12/31 12:55:06;;;;;;;0.10;0.10;;;;;;;;;;6310632;28;20024;-81
2023/12/31 12:58:06;;;;;;;0.10;0.10;;;;;;;;;;6317970;28;20031;-81
2023/12/31 13:01:06;;;;;;;0.10;0.10;;;;;;;;;;6306132;28;20415;-81
2023/12/31 13:04:10;;;;;;;0.10;0.10;;;;;;;;;;6300518;28;20031;-82
2023/12/31 13:07:11;;;;;;;0.10;0.10;;;;;;;;;;6305028;28;20052;-82
2023/12/31 13:10:11;;;;;;;0.10;0.10;;;;;;;;;;6304699;28;20486;-82
2023/12/31 13:13:11;;;;;;;0.10;0.10;;;;;;;;;;6315753;28;20456;-82
2023/12/31 13:16:12;;;;;;;0.10;0.10;;;;;;;;;;6313957;28;20102;-82
2023/12/31 13:19:13;;;;;;;0.10;0.10;;;;;;;;;;6311490;28;20035;-82
2023/12/31 13:22:13;;;;;;;0.10;0.10;;;;;;;;;;6324635;28;20040;-82
2023/12/31 13:25:14;;;;;;;0.10;0.10;;;;;;;;;;6312835;28;20352;-82
2023/12/31 13:28:15;;;;;;;0.10;0.10;;;;;;;;;;6326937;28;20543;-82
2023/12/31 13:31:17;;;;;;;0.10;0.10;;;;;;;;;;6310932;28;20073;-82
2023/12/31 13:34:23;;;;;;;0.10;0.10;;;;;;;;;;6324179;28;20025;-82
2023/12/31 13:37:23;;;;;;;0.10;0.10;;;;;;;;;;6319163;28;20096;-82
2023/12/31 13:40:23;;;;;;;0.10;0.10;;;;;;;;;;6310808;28;20026;-81
2023/12/31 13:43:23;;;;;;;0.10;0.10;;;;;;;;;;6306538;28;20438;-82
2023/12/31 13:46:23;;;;;;;0.10;0.10;;;;;;;;;;6305110;28;20020;-82
2023/12/31 13:49:24;;;;;;;0.10;0.10;;;;;;;;;;6304911;28;20024;-82
2023/12/31 13:52:24;;;;;;;0.10;0.10;;;;;;;;;;6278533;28;20613;-82
2023/12/31 13:55:24;;;;;;;0.10;0.10;;;;;;;;;;6284203;28;20032;-82
2023/12/31 13:58:25;;;;;;;0.10;0.10;;;;;;;;;;6304904;28;20492;-82
2023/12/31 14:01:25;;;;;;;0.10;0.10;;;;;;;;;;6311516;28;20331;-82
2023/12/31 14:04:26;;;;;;;0.10;0.10;;;;;;;;;;6313714;28;20020;-82
2023/12/31 14:07:26;;;;;;;0.17;0.17;;;;;;;;;;6319462;28;20035;-82
2023/12/31 14:10:26;;;;;;;0.13;0.13;;;;;;;;;;6319714;28;20058;-83
2023/12/31 14:13:26;;;;;;;0.10;0.10;;;;;;;;;;6296102;28;20012;-81
2023/12/31 14:16:26;;;;;;;0.10;0.10;;;;;;;;;;6313708;28;20069;-81
2023/12/31 14:19:27;;;;;;;0.10;0.10;;;;;;;;;;6306557;28;20012;-81
2023/12/31 14:22:27;;;;;;;0.10;0.10;;;;;;;;;;6283477;28;20074;-81
2023/12/31 14:25:28;;;;;;;0.10;0.10;;;;;;;;;;6294141;28;20048;-83
2023/12/31 14:28:28;;;;;;;0.20;0.20;;;;;;;;;;6300727;28;20034;-83
2023/12/31 14:31:28;;;;;;;0.10;0.10;;;;;;;;;;6297019;28;20025;-83
2023/12/31 14:34:28;;;;;;;0.20;0.20;;;;;;;;;;6280293;28;20027;-83
2023/12/31 14:37:29;;;;;;;0.10;0.10;;;;;;;;;;6305704;28;20050;-82
2023/12/31 14:40:29;;;;;;;0.10;0.10;;;;;;;;;;6311324;28;20071;-83
2023/12/31 14:43:29;;;;;;;0.20;0.20;;;;;;;;;;6304381;28;20453;-83
2023/12/31 14:46:30;;;;;;;0.10;0.10;;;;;;;;;;6308560;28;20029;-83
2023/12/31 14:49:30;;;;;;;0.13;0.13;;;;;;;;;;6307402;28;20015;-82
2023/12/31 14:52:30;;;;;;;0.10;0.10;;;;;;;;;;6292143;28;20104;-82
2023/12/31 14:55:30;;;;;;;0.10;0.10;;;;;;;;;;6286051;28;20025;-83
2023/12/31 14:58:30;;;;;;;0.10;0.10;;;;;;;;;;6281499;28;20525;-83
2023/12/31 15:01:31;;;;;;;0.20;0.20;;;;;;;;;;6284560;28;20026;-83
2023/12/31 15:04:31;;;;;;;0.20;0.20;;;;;;;;;;6286612;28;20457;-82
2023/12/31 15:07:31;;;;;;;0.20;0.20;;;;;;;;;;6289579;28;20111;-83
2023/12/31 15:10:31;;;;;;;0.13;0.13;;;;;;;;;;6287797;28;20028;-83
2023/12/31 15:13:33;;;;;;;0.20;0.20;;;;;;;;;;6268885;28;20080;-83
2023/12/31 15:16:33;;;;;;;0.15;0.15;;;;;;;;;;6283399;28;20032;-83
2023/12/31 15:19:34;;;;;;;0.10;0.10;;;;;;;;;;6283933;28;20035;-83
2023/12/31 15:22:34;;;;;;;0.10;0.10;;;;;;;;;;6291814;28;20017;-83
2023/12/31 15:25:34;;;;;;;0.10;0.10;;;;;;;;;;6288986;28;20096;-83
2023/12/31 15:28:34;;;;;;;0.20;0.20;;;;;;;;;;6283497;28;20032;-83
2023/12/31 15:31:36;;;;;;;0.10;0.10;;;;;;;;;;6288803;28;20028;-83
2023/12/31 15:34:37;;;;;;;0.20;0.20;;;;;;;;;;6286148;28;20031;-83
2023/12/31 15:37:37;;;;;;;0.10;0.10;;;;;;;;;;6291566;28;20423;-83
2023/12/31 15:40:39;;;;;;;0.20;0.20;;;;;;;;;;6308804;28;20597;-83
2023/12/31 15:43:39;;;;;;;;;;;;;;;;;;6302159;28;20522;-82
2023/12/31 15:46:39;;;;;;;0.10;0.10;;;;;;;;;;6305088;28;19912;-82
2023/12/31 15:49:39;;;;;;;0.20;0.20;;;;;;;;;;6294672;28;20016;-82
2023/12/31 15:52:39;;;;;;;0.10;0.10;;;;;;;;;;6289826;28;20107;-83
2023/12/31 15:55:40;;;;;;;0.20;0.20;;;;;;;;;;6291682;28;20024;-83
2023/12/31 15:58:40;;;;;;;0.10;0.10;;;;;;;;;;6290702;28;20035;-83
2023/12/31 16:01:46;;;;;;;0.20;0.20;;;;;;;;;;6291187;28;20024;-82
2023/12/31 16:04:47;;;;;;;0.20;0.20;;;;;;;;;;6277550;28;20475;-82
2023/12/31 16:07:47;;;;;;;0.20;0.20;;;;;;;;;;6289778;28;20020;-82
2023/12/31 16:10:49;;;;;;;0.20;0.20;;;;;;;;;;6285045;28;20068;-82
2023/12/31 16:13:49;;;;;;;;;;;;;;;;;;6288977;28;20021;-82
2023/12/31 16:16:49;;;;;;;0.20;0.20;;;;;;;;;;6287808;28;20538;-82
2023/12/31 16:19:51;;;;;;;0.10;0.10;;;;;;;;;;6288498;28;20065;-83
2023/12/31 16:22:52;;;;;;;0.20;0.20;;;;;;;;;;6291533;28;20035;-82
2023/12/31 16:25:53;;;;;;;0.20;0.20;;;;;;;;;;6288840;28;20044;-82
2023/12/31 16:28:53;;;;;;;0.10;0.10;;;;;;;;;;6289031;28;20020;-82
2023/12/31 16:31:53;;;;;;;0.20;0.20;;;;;;;;;;6289527;28;20031;-82
2023/12/31 16:34:53;;;;;;;0.10;0.10;;;;;;;;;;6285898;28;20016;-82
2023/12/31 16:37:54;;;;;;;0.10;0.10;;;;;;;;;;6285842;28;20471;-82
2023/12/31 16:40:54;;;;;;;0.10;0.10;;;;;;;;;;6288957;28;20020;-83
2023/12/31 16:43:54;;;;;;;0.10;0.10;;;;;;;;;;6291011;28;20017;-83
2023/12/31 16:46:54;;;;;;;0.20;0.20;;;;;;;;;;6285431;28;20394;-83
2023/12/31 16:49:55;;;;;;;0.20;0.20;;;;;;;;;;6290241;28;20016;-83
2023/12/31 16:52:55;;;;;;;0.20;0.20;;;;;;;;;;6282241;28;20012;-83
2023/12/31 16:55:56;;;;;;;0.13;0.13;;;;;;;;;;6285033;28;20147;-83
2023/12/31 16:58:57;;;;;;;0.20;0.20;;;;;;;;;;6283556;28;20446;-83
2023/12/31 17:01:57;;;;;;;0.20;0.20;;;;;;;;;;6288915;28;20153;-83
2023/12/31 17:04:58;;;;;;;0.20;0.20;;;;;;;;;;6282880;28;20408;-83
2023/12/31 17:07:58;;;;;;;0.20;0.20;;;;;;;;;;6286946;28;20012;-83
2023/12/31 17:10:58;;;;;;;0.20;0.20;;;;;;;;;;6282261;28;20373;-83
2023/12/31 17:13:58;;;;;;;0.20;0.20;;;;;;;;;;6291849;28;20293;-83
2023/12/31 17:16:59;;;;;;;0.20;0.20;;;;;;;;;;6291082;28;20410;-83
2023/12/31 17:19:59;;;;;;;0.20;0.20;;;;;;;;;;6293356;28;20034;-83
2023/12/31 17:22:59;;;;;;;0.20;0.20;;;;;;;;;;6294367;28;20028;-83
2023/12/31 17:25:59;;;;;;;0.20;0.20;;;;;;;;;;6289640;28;20084;-83
2023/12/31 17:29:00;;;;;;;0.20;0.20;;;;;;;;;;6291456;28;20146;-83
2023/12/31 17:32:00;;;;;;;0.20;0.20;;;;;;;;;;6293300;28;20403;-83
2023/12/31 17:35:00;;;;;;;0.20;0.20;;;;;;;;;;6292845;28;20022;-81
2023/12/31 17:38:01;;;;;;;0.20;0.20;;;;;;;;;;6289519;28;20024;-80
2023/12/31 17:41:01;;;;;;;0.20;0.20;;;;;;;;;;6291422;28;20021;-81
2023/12/31 17:44:01;;;;;;;0.20;0.20;;;;;;;;;;6282120;28;20474;-83
2023/12/31 17:47:02;;;;;;;0.20;0.20;;;;;;;;;;6286056;28;20468;-83
2023/12/31 17:50:02;;;;;;;0.20;0.20;;;;;;;;;;6291677;28;20036;-83
2023/12/31 17:53:03;;;;;;;0.20;0.20;;;;;;;;;;6290034;28;20021;-83
2023/12/31 17:56:03;;;;;;;0.20;0.20;;;;;;;;;;6281390;28;20016;-83
2023/12/31 17:59:03;;;;;;;0.20;0.20;;;;;;;;;;6284499;28;20047;-84
2023/12/31 18:02:04;;;;;;;0.20;0.20;;;;;;;;;;6288683;28;20062;-84
2023/12/31 18:05:04;;;;;;;0.20;0.20;;;;;;;;;;6290968;28;20029;-82
2023/12/31 18:08:04;;;;;;;0.20;0.20;;;;;;;;;;6288506;28;20024;-83
2023/12/31 18:11:05;;;;;;;0.20;0.20;;;;;;;;;;6282474;28;20142;-83
2023/12/31 18:14:05;;;;;;;0.20;0.20;;;;;;;;;;6284047;28;20020;-83
2023/12/31 18:17:05;;;;;;;0.20;0.20;;;;;;;;;;6280477;28;20024;-84
2023/12/31 18:20:06;;;;;;;0.20;0.20;;;;;;;;;;6279030;28;20021;-83
2023/12/31 18:23:08;;;;;;;0.20;0.20;;;;;;;;;;6291335;28;20457;-83
2023/12/31 18:26:08;;;;;;;0.20;0.20;;;;;;;;;;6277969;28;20046;-83
2023/12/31 18:29:08;;;;;;;0.20;0.20;;;;;;;;;;6273394;28;20025;-83
2023/12/31 18:32:08;;;;;;;0.20;0.20;;;;;;;;;;6284821;28;20017;-84
2023/12/31 18:35:09;;;;;;;0.20;0.20;;;;;;;;;;6290834;28;20051;-84
2023/12/31 18:38:09;;;;;;;0.20;0.20;;;;;;;;;;6289522;28;20024;-84
2023/12/31 18:41:10;;;;;;;0.20;0.20;;;;;;;;;;6290573;28;20552;-83
2023/12/31 18:44:11;;;;;;;0.20;0.20;;;;;;;;;;6284648;28;20103;-84
2023/12/31 18:47:11;;;;;;;0.20;0.20;;;;;;;;;;6297206;28;20920;-83
2023/12/31 18:50:11;;;;;;;0.20;0.20;;;;;;;;;;6290443;28;20034;-84
2023/12/31 18:53:11;;;;;;;0.20;0.20;;;;;;;;;;6286362;28;20043;-81
2023/12/31 18:56:11;;;;;;;0.20;0.20;;;;;;;;;;6284668;28;20079;-81
2023/12/31 18:59:13;;;;;;;0.20;0.20;;;;;;;;;;6286308;28;20028;-81
2023/12/31 19:02:15;;;;;;;0.20;0.20;;;;;;;;;;6284099;28;20126;-81
2023/12/31 19:05:15;;;;;;;0.20;0.20;;;;;;;;;;6288898;28;20020;-81
2023/12/31 19:08:17;;;;;;;0.20;0.20;;;;;;;;;;6281540;28;20096;-81
2023/12/31 19:11:18;;;;;;;0.20;0.20;;;;;;;;;;6291880;28;20016;-81
2023/12/31 19:14:18;;;;;;;0.20;0.20;;;;;;;;;;6281921;28;20089;-81
2023/12/31 19:17:19;;;;;;;0.20;0.20;;;;;;;;;;6280818;28;20494;-81
2023/12/31 19:20:19;;;;;;;0.20;0.20;;;;;;;;;;6292724;28;20110;-81
2023/12/31 19:23:19;;;;;;;0.20;0.20;;;;;;;;;;6287490;28;20040;-81
2023/12/31 19:26:19;;;;;;;0.20;0.20;;;;;;;;;;6288406;28;20063;-81
2023/12/31 19:29:21;;;;;;;0.20;0.20;;;;;;;;;;6291194;28;20059;-81
2023/12/31 19:32:21;;;;;;;0.20;0.20;;;;;;;;;;6276984;28;20017;-81
2023/12/31 19:35:21;;;;;;;0.15;0.15;;;;;;;;;;6297081;28;20027;-81
2023/12/31 19:38:21;;;;;;;0.20;0.20;;;;;;;;;;6284523;28;20094;-81
2023/12/31 19:41:21;;;;;;;0.20;0.20;;;;;;;;;;6283009;28;20029;-81
2023/12/31 19:44:22;;;;;;;0.20;0.20;;;;;;;;;;6284945;28;20025;-81
2023/12/31 19:47:22;;;;;;;0.20;0.20;;;;;;;;;;6285630;28;20487;-81
2023/12/31 19:50:22;;;;;;;0.20;0.20;;;;;;;;;;6274688;28;20048;-81
2023/12/31 19:53:22;;;;;;;0.20;0.20;;;;;;;;;;6292713;28;20094;-84
2023/12/31 19:56:22;;;;;;;0.20;0.20;;;;;;;;;;6276680;28;20107;-84
2023/12/31 19:59:22;;;;;;;0.20;0.20;;;;;;;;;;6287344;28;20032;-84
2023/12/31 20:02:28;;;;;;;0.20;0.20;;;;;;;;;;6283105;28;20056;-84
2023/12/31 20:05:29;;;;;;;0.20;0.20;;;;;;;;;;6280085;28;20368;-84
2023/12/31 20:08:29;;;;;;;0.20;0.20;;;;;;;;;;6285759;28;20024;-85
2023/12/31 20:11:29;;;;;;;0.20;0.20;;;;;;;;;;6282151;28;20029;-84
2023/12/31 20:14:29;;;;;;;0.20;0.20;;;;;;;;;;6290053;28;20025;-84
2023/12/31 20:17:30;;;;;;;0.20;0.20;;;;;;;;;;6287956;28;20024;-84
2023/12/31 20:20:30;;;;;;;0.20;0.20;;;;;;;;;;6290459;28;20028;-84
2023/12/31 20:23:30;;;;;;;0.20;0.20;;;;;;;;;;6278204;28;20104;-84
2023/12/31 20:26:30;;;;;;;0.20;0.20;;;;;;;;;;6290652;28;20036;-84
2023/12/31 20:29:31;;;;;;;0.20;0.20;;;;;;;;;;6277439;28;20112;-83
2023/12/31 20:32:31;;;;;;;0.30;0.30;;;;;;;;;;6272039;28;20020;-84
2023/12/31 20:35:31;;;;;;;0.20;0.20;;;;;;;;;;6286899;28;20028;-84
2023/12/31 20:38:31;;;;;;;0.20;0.20;;;;;;;;;;6287063;28;20033;-84
2023/12/31 20:41:32;;;;;;;0.20;0.20;;;;;;;;;;6280594;28;20100;-84
2023/12/31 20:44:32;;;;;;;0.20;0.20;;;;;;;;;;6288290;28;20021;-84
2023/12/31 20:47:32;;;;;;;0.20;0.20;;;;;;;;;;6291869;28;20031;-84
2023/12/31 20:50:34;;;;;;;0.20;0.20;;;;;;;;;;6303059;28;20004;-84
2023/12/31 20:53:35;;;;;;;0.20;0.20;;;;;;;;;;6298459;28;20477;-84
2023/12/31 20:56:36;;;;;;;0.20;0.20;;;;;;;;;;6307587;28;20393;-83
2023/12/31 20:59:38;;;;;;;0.20;0.20;;;;;;;;;;6287084;28;20119;-83
2023/12/31 21:02:38;;;;;;;0.20;0.20;;;;;;;;;;6291514;28;20032;-84
2023/12/31 21:05:39;;;;;;;0.20;0.20;;;;;;;;;;6297017;28;20101;-81
2023/12/31 21:08:39;;;;;;;0.20;0.20;;;;;;;;;;6286258;28;20021;-81
2023/12/31 21:11:41;;;;;;;0.20;0.20;;;;;;;;;;6286955;28;20027;-81
2023/12/31 21:14:41;;;;;;;0.20;0.20;;;;;;;;;;6290690;28;20095;-81
2023/12/31 21:17:41;;;;;;;0.20;0.20;;;;;;;;;;6287308;28;20047;-81
2023/12/31 21:20:41;;;;;;;0.20;0.20;;;;;;;;;;6282027;28;20032;-81
2023/12/31 21:23:42;;;;;;;0.20;0.20;;;;;;;;;;6294702;28;20055;-84
2023/12/31 21:26:43;;;;;;;0.20;0.20;;;;;;;;;;6285658;28;20032;-84
2023/12/31 21:29:43;;;;;;;0.20;0.20;;;;;;;;;;6281015;28;20395;-84
2023/12/31 21:32:43;;;;;;;0.20;0.20;;;;;;;;;;6284460;28;20024;-82
2023/12/31 21:35:44;;;;;;;0.20;0.20;;;;;;;;;;6281804;28;20029;-84
2023/12/31 21:38:45;;;;;;;0.20;0.20;;;;;;;;;;6294814;28;20032;-83
2023/12/31 21:41:45;;;;;;;0.20;0.20;;;;;;;;;;6293587;28;20538;-83
2023/12/31 21:44:45;;;;;;;0.20;0.20;;;;;;;;;;6285632;28;20455;-83
2023/12/31 21:47:45;;;;;;;0.20;0.20;;;;;;;;;;6288032;28;20021;-83
2023/12/31 21:50:45;;;;;;;0.20;0.20;;;;;;;;;;6296993;28;20013;-83
2023/12/31 21:53:46;;;;;;;0.20;0.20;;;;;;;;;;6288352;28;20090;-84
2023/12/31 21:56:46;;;;;;;0.20;0.20;;;;;;;;;;6288825;28;20440;-84
2023/12/31 21:59:46;;;;;;;0.13;0.13;;;;;;;;;;6292875;28;20016;-84
2023/12/31 22:02:50;;;;;;;0.20;0.20;;;;;;;;;;6292184;28;20016;-83
2023/12/31 22:05:51;;;;;;;0.20;0.20;;;;;;;;;;6283798;28;20028;-84
2023/12/31 22:08:51;;;;;;;0.20;0.20;;;;;;;;;;6286756;28;20427;-84
2023/12/31 22:11:51;;;;;;;0.20;0.20;;;;;;;;;;6284219;28;20016;-84
2023/12/31 22:14:52;;;;;;;0.20;0.20;;;;;;;;;;6288027;28;20100;-84
2023/12/31 22:17:52;;;;;;;0.20;0.20;;;;;;;;;;6289563;28;20400;-84
2023/12/31 22:20:53;;;;;;;0.20;0.20;;;;;;;;;;6297376;28;20032;-84
2023/12/31 22:23:53;;;;;;;0.20;0.20;;;;;;;;;;6284383;28;20027;-84
2023/12/31 22:26:54;;;;;;;0.20;0.20;;;;;;;;;;6286999;28;20407;-84
2023/12/31 22:29:54;;;;;;;0.20;0.20;;;;;;;;;;6290852;28;20176;-84
2023/12/31 22:32:54;;;;;;;0.20;0.20;;;;;;;;;;6292307;28;20016;-84
2023/12/31 22:35:54;;;;;;;0.20;0.20;;;;;;;;;;6291006;28;20024;-84
2023/12/31 22:38:55;;;;;;;0.20;0.20;;;;;;;;;;6292429;28;20365;-84
2023/12/31 22:41:55;;;;;;;0.20;0.20;;;;;;;;;;6292306;28;20506;-84
2023/12/31 22:44:55;;;;;;;0.20;0.20;;;;;;;;;;6287333;28;20031;-84
2023/12/31 22:47:55;;;;;;;0.20;0.20;;;;;;;;;;6287983;28;20012;-84
2023/12/31 22:50:56;;;;;;;0.20;0.20;;;;;;;;;;6283160;28;20036;-84
2023/12/31 22:53:56;;;;;;;0.20;0.20;;;;;;;;;;6287146;28;20024;-83
2023/12/31 22:56:56;;;;;;;0.20;0.20;;;;;;;;;;6294291;28;20016;-83
2023/12/31 22:59:56;;;;;;;0.20;0.20;;;;;;;;;;6289210;28;20021;-83
2023/12/31 23:02:57;;;;;;;0.30;0.30;;;;;;;;;;6288085;28;20027;-82
2023/12/31 23:05:57;;;;;;;0.20;0.20;;;;;;;;;;6285972;28;20031;-81
2023/12/31 23:08:58;;;;;;;0.20;0.20;;;;;;;;;;6274181;28;20116;-82
2023/12/31 23:11:58;;;;;;;0.20;0.20;;;;;;;;;;6289875;28;20028;-82
2023/12/31 23:14:59;;;;;;;0.20;0.20;;;;;;;;;;6295267;28;20019;-82
2023/12/31 23:17:59;;;;;;;0.20;0.20;;;;;;;;;;6290051;28;20174;-82
2023/12/31 23:21:00;;;;;;;0.20;0.20;;;;;;;;;;6284577;28;20025;-82
2023/12/31 23:24:00;;;;;;;0.20;0.20;;;;;;;;;;6293867;28;20071;-82
2023/12/31 23:27:00;;;;;;;0.20;0.20;;;;;;;;;;6290478;28;20147;-82
2023/12/31 23:30:01;;;;;;;0.20;0.20;;;;;;;;;;6298482;28;20024;-82
2023/12/31 23:33:01;;;;;;;0.20;0.20;;;;;;;;;;6286246;28;20452;-80
2023/12/31 23:36:02;;;;;;;0.20;0.20;;;;;;;;;;6277059;28;20654;-80
2023/12/31 23:39:03;;;;;;;0.20;0.20;;;;;;;;;;6291860;28;20034;-80
2023/12/31 23:42:03;;;;;;;0.20;0.20;;;;;;;;;;6294563;28;20025;-80
2023/12/31 23:45:04;;;;;;;0.20;0.20;;;;;;;;;;6308259;28;20022;-82
2023/12/31 23:48:04;;;;;;;0.20;0.20;;;;;;;;;;6274911;28;20030;-82
2023/12/31 23:51:04;;;;;;;0.20;0.20;;;;;;;;;;6307455;28;20067;-82
2023/12/31 23:54:05;;;;;;;0.20;0.20;;;;;;;;;;6284765;28;20086;-83
2023/12/31 23:57:05;;;;;;;0.20;0.20;;;;;;;;;;6292348;28;20029;-83
